Time;durP1;ratioP1;P1;durP2;ratioP2;P2;SDS_P1;SDS_P2;PMS_P1;PMS_P2;Temp;Humidity;BMP_temperature;BMP_pressure;BME280_temperature;BME280_humidity;BME280_pressure;Samples;Min_cycle;Max_cycle;Signal;HPM_P1;HPM_P2
2023/12/12 00:01:31;;;;;;;91.57;17.50;;;1.90;99.90;;;-0.28;100.00;99530.38;10480123;27;96623;-81
2023/12/12 00:06:35;;;;;;;167.77;23.40;;;1.90;99.90;;;-0.26;100.00;99522.41;10500729;27;96481;-81
2023/12/12 00:11:38;;;;;;;95.50;18.93;;;1.90;99.90;;;-0.22;100.00;99528.25;10452994;27;96506;-81
2023/12/12 00:16:42;;;;;;;128.70;22.07;;;1.90;99.90;;;-0.24;100.00;99536.22;10450320;27;96699;-81
2023/12/12 00:21:45;;;;;;;127.60;23.00;;;1.90;99.90;;;-0.22;100.00;99555.19;10475855;27;96446;-81
2023/12/12 00:26:49;;;;;;;132.63;22.23;;;2.00;99.90;;;-0.20;100.00;99552.47;10499342;27;96850;-81
2023/12/12 00:31:52;;;;;;;131.37;19.07;;;2.00;99.90;;;-0.21;100.00;99559.47;10454535;27;96563;-81
2023/12/12 00:36:56;;;;;;;137.03;19.00;;;2.00;99.90;;;-0.21;100.00;99563.84;10440190;27;96406;-81
2023/12/12 00:42:00;;;;;;;139.90;21.03;;;1.90;99.90;;;-0.19;100.00;99570.63;10490893;27;96444;-81
2023/12/12 00:47:05;;;;;;;87.57;16.43;;;2.00;99.90;;;-0.16;100.00;99572.19;10476082;27;96604;-81
2023/12/12 00:52:08;;;;;;;108.03;17.70;;;2.00;99.90;;;-0.17;100.00;99562.69;10446997;27;96580;-81
2023/12/12 00:57:12;;;;;;;130.77;18.93;;;2.00;99.90;;;-0.15;100.00;99576.44;10460096;27;96485;-81
2023/12/12 01:02:15;;;;;;;88.93;17.53;;;2.00;99.90;;;-0.13;100.00;99575.38;10461394;27;96584;-81
2023/12/12 01:07:19;;;;;;;94.30;16.53;;;2.10;99.90;;;-0.15;100.00;99555.56;10481838;27;97669;-81
2023/12/12 01:12:25;;;;;;;91.30;16.33;;;2.00;99.90;;;-0.15;100.00;99564.22;10497837;27;96525;-81
2023/12/12 01:17:29;;;;;;;101.07;16.77;;;2.00;99.90;;;-0.19;100.00;99556.72;10461457;27;96448;-81
2023/12/12 01:22:34;;;;;;;109.20;16.43;;;2.00;99.90;;;-0.21;100.00;99541.19;10479354;27;96585;-81
2023/12/12 01:27:37;;;;;;;120.37;17.13;;;2.00;99.90;;;-0.22;100.00;99542.13;10504166;27;96372;-80
2023/12/12 01:32:41;;;;;;;104.90;17.23;;;1.90;99.90;;;-0.19;100.00;99572.41;10484124;27;96780;-80
2023/12/12 01:37:44;;;;;;;108.00;17.53;;;1.90;99.90;;;-0.21;100.00;99558.63;10460582;27;96602;-81
2023/12/12 01:42:48;;;;;;;113.70;18.77;;;2.00;99.90;;;-0.18;100.00;99555.78;10500954;27;96382;-81
2023/12/12 01:47:51;;;;;;;170.60;23.20;;;2.00;99.90;;;-0.18;100.00;99556.63;10484734;27;96526;-81
2023/12/12 01:52:56;;;;;;;89.07;16.07;;;2.00;99.90;;;-0.12;100.00;99565.75;10456217;27;98484;-81
2023/12/12 01:57:59;;;;;;;118.50;17.63;;;2.00;99.90;;;-0.11;100.00;99570.88;10456398;27;96479;-81
2023/12/12 02:03:03;;;;;;;126.60;20.43;;;2.10;99.90;;;-0.13;100.00;99564.94;10482262;27;96840;-81
2023/12/12 02:08:07;;;;;;;124.47;21.30;;;2.10;99.90;;;-0.09;100.00;99565.53;10480794;27;96605;-81
2023/12/12 02:13:10;;;;;;;153.50;20.57;;;2.10;99.90;;;-0.08;100.00;99561.97;10453834;27;96558;-81
2023/12/12 02:18:14;;;;;;;113.77;19.10;;;2.00;99.90;;;-0.11;100.00;99551.78;10468022;27;96924;-81
2023/12/12 02:23:18;;;;;;;120.80;19.00;;;2.10;99.90;;;-0.09;100.00;99555.94;10480070;27;96776;-80
2023/12/12 02:28:22;;;;;;;96.53;15.43;;;2.10;99.90;;;-0.11;100.00;99551.78;10441399;27;96689;-80
2023/12/12 02:33:25;;;;;;;113.90;18.03;;;2.10;99.90;;;-0.10;100.00;99537.78;10466924;27;96550;-80
2023/12/12 02:38:29;;;;;;;113.57;19.87;;;2.00;99.90;;;-0.17;100.00;99541.81;10495841;27;96388;-80
2023/12/12 02:43:32;;;;;;;118.50;20.90;;;2.00;99.90;;;-0.20;100.00;99550.69;10420694;27;96544;-80
2023/12/12 02:48:36;;;;;;;109.07;17.97;;;2.00;99.90;;;-0.22;100.00;99549.97;10480464;27;97079;-80
2023/12/12 02:53:40;;;;;;;101.83;19.03;;;2.00;99.90;;;-0.18;100.00;99555.78;10462666;27;96563;-80
2023/12/12 02:58:43;;;;;;;80.80;15.13;;;2.00;99.90;;;-0.17;100.00;99566.13;10480836;27;96593;-80
2023/12/12 03:03:47;;;;;;;108.13;19.80;;;2.00;99.90;;;-0.18;100.00;99574.06;10465018;27;96540;-80
2023/12/12 03:08:50;;;;;;;119.03;18.97;;;2.00;99.90;;;-0.18;100.00;99581.88;10477523;27;96398;-80
2023/12/12 03:13:54;;;;;;;125.50;19.10;;;2.00;99.90;;;-0.20;100.00;99575.97;10454831;27;96553;-80
2023/12/12 03:18:58;;;;;;;115.80;20.93;;;2.00;99.90;;;-0.19;100.00;99580.22;10456074;27;97844;-80
2023/12/12 03:24:01;;;;;;;87.63;17.27;;;2.00;99.90;;;-0.22;100.00;99575.25;10460164;27;96379;-80
2023/12/12 03:29:05;;;;;;;103.10;19.17;;;1.90;99.90;;;-0.28;100.00;99592.22;10477598;27;98081;-80
2023/12/12 03:34:09;;;;;;;128.00;20.97;;;1.90;99.90;;;-0.31;100.00;99582.81;10498560;27;97884;-80
2023/12/12 03:39:12;;;;;;;125.83;20.70;;;1.90;99.90;;;-0.32;100.00;99578.53;10496048;27;96591;-80
2023/12/12 03:44:16;;;;;;;118.73;17.83;;;1.80;99.90;;;-0.33;100.00;99579.47;10425812;27;96763;-80
2023/12/12 03:49:19;;;;;;;98.27;18.33;;;1.80;99.90;;;-0.41;100.00;99581.84;10459373;27;96427;-82
2023/12/12 03:54:23;;;;;;;111.57;20.53;;;1.80;99.90;;;-0.45;100.00;99590.00;10435579;27;96677;-80
2023/12/12 03:59:26;;;;;;;76.33;20.77;;;1.70;99.90;;;-0.45;100.00;99597.84;10489476;27;96624;-82
2023/12/12 04:04:30;;;;;;;115.17;39.43;;;1.70;99.90;;;-0.52;100.00;99597.44;10474144;27;96536;-80
2023/12/12 04:09:33;;;;;;;58.63;19.57;;;1.60;99.90;;;-0.64;100.00;99598.34;10447901;27;96596;-81
2023/12/12 04:14:37;;;;;;;61.77;19.70;;;1.60;99.90;;;-0.73;100.00;99601.59;10485884;27;96559;-81
2023/12/12 04:19:40;;;;;;;61.97;19.37;;;1.40;99.90;;;-0.83;100.00;99602.28;10493675;27;96488;-81
2023/12/12 04:24:43;;;;;;;60.83;19.63;;;1.40;99.90;;;-0.90;100.00;99602.81;10452479;27;96617;-81
2023/12/12 04:29:47;;;;;;;66.63;22.30;;;1.30;99.90;;;-0.95;100.00;99591.91;10477022;27;96637;-81
2023/12/12 04:34:51;;;;;;;51.50;19.40;;;1.30;99.90;;;-0.93;100.00;99600.44;10483031;27;96557;-81
2023/12/12 04:39:55;;;;;;;86.40;23.10;;;1.20;99.90;;;-0.96;100.00;99601.50;10444068;27;96593;-81
2023/12/12 04:44:58;;;;;;;126.20;24.53;;;1.20;99.90;;;-0.97;100.00;99602.41;10460745;27;96613;-81
2023/12/12 04:50:03;;;;;;;146.87;28.33;;;1.20;99.90;;;-0.99;100.00;99595.66;10485073;27;97580;-81
2023/12/12 04:55:07;;;;;;;131.60;30.77;;;1.20;99.90;;;-1.01;100.00;99594.94;10442372;27;96780;-82
2023/12/12 05:00:13;;;;;;;111.40;24.13;;;1.20;99.90;;;-0.99;100.00;99588.66;10459332;27;96591;-82
2023/12/12 05:05:17;;;;;;;135.33;25.40;;;1.20;99.90;;;-0.97;100.00;99604.19;10444552;27;96652;-82
2023/12/12 05:10:21;;;;;;;134.43;26.23;;;1.20;99.90;;;-1.03;100.00;99602.84;10501321;27;96373;-82
2023/12/12 05:15:24;;;;;;;180.53;37.40;;;1.20;99.90;;;-1.06;100.00;99605.69;10445750;27;97739;-82
2023/12/12 05:20:28;;;;;;;85.03;24.23;;;1.10;99.90;;;-1.14;100.00;99603.63;10485336;27;96730;-82
2023/12/12 05:25:31;;;;;;;32.10;12.50;;;1.00;99.90;;;-0.95;100.00;99607.56;10476223;27;96520;-82
2023/12/12 05:30:35;;;;;;;7.77;4.63;;;1.10;99.90;;;-0.14;100.00;99614.69;10450972;27;96518;-82
2023/12/12 05:35:42;;;;;;;11.67;4.63;;;1.60;99.90;;;0.92;100.00;99610.88;10461937;27;96492;-82
2023/12/12 05:40:46;;;;;;;10.77;5.20;;;2.60;99.90;;;1.48;100.00;99609.91;10447775;27;96503;-82
2023/12/12 05:45:50;;;;;;;65.13;21.73;;;3.20;99.90;;;1.88;100.00;99615.34;10452052;27;97058;-83
2023/12/12 05:50:54;;;;;;;86.63;24.00;;;3.80;99.90;;;1.25;100.00;99630.91;10483745;27;97602;-82
2023/12/12 05:55:58;;;;;;;71.13;20.67;;;3.50;99.90;;;0.64;100.00;99638.31;10480540;27;96564;-83
2023/12/12 06:01:02;;;;;;;73.73;26.10;;;3.00;99.90;;;0.09;100.00;99649.53;10459385;27;96425;-83
2023/12/12 06:06:08;;;;;;;32.63;12.60;;;2.40;99.90;;;-0.23;100.00;99651.94;10455943;27;96584;-83
2023/12/12 06:11:12;;;;;;;26.00;12.33;;;2.00;99.90;;;-0.28;100.00;99666.16;10472515;27;96484;-83
2023/12/12 06:16:16;;;;;;;10.47;4.70;;;1.80;99.90;;;0.14;100.00;99661.31;10472636;27;96750;-82
2023/12/12 06:21:21;;;;;;;12.37;4.60;;;2.10;99.90;;;0.71;100.00;99670.91;10470980;27;96603;-82
2023/12/12 06:26:26;;;;;;;9.97;4.20;;;2.60;99.90;;;1.46;100.00;99672.03;10459513;27;96564;-83
2023/12/12 06:31:29;;;;;;;12.80;3.47;;;3.20;99.90;;;2.06;100.00;99675.88;10470215;27;96413;-82
2023/12/12 06:36:33;;;;;;;9.00;3.17;;;3.80;99.90;;;2.34;100.00;99677.88;10427663;27;96419;-82
2023/12/12 06:41:37;;;;;;;9.60;3.03;;;4.20;99.90;;;2.64;100.00;99681.53;10440273;27;96611;-83
2023/12/12 06:46:40;;;;;;;10.50;2.90;;;4.60;99.90;;;2.73;100.00;99688.59;10473528;27;96490;-82
2023/12/12 06:51:44;;;;;;;10.77;3.67;;;4.70;99.90;;;2.78;100.00;99688.22;10465653;27;97681;-83
2023/12/12 06:56:48;;;;;;;15.90;7.13;;;4.90;99.90;;;2.75;100.00;99702.41;10482066;27;96439;-83
2023/12/12 07:01:51;;;;;;;36.17;14.93;;;4.80;99.90;;;2.40;100.00;99700.16;10469109;27;96448;-82
2023/12/12 07:06:55;;;;;;;34.13;17.27;;;4.60;99.90;;;1.94;100.00;99703.09;10433218;27;96500;-83
2023/12/12 07:11:58;;;;;;;44.80;19.60;;;4.20;99.90;;;1.41;100.00;99703.81;10462599;27;96517;-82
2023/12/12 07:17:02;;;;;;;43.37;19.77;;;3.70;99.90;;;1.04;100.00;99708.50;10462265;27;96470;-82
2023/12/12 07:22:06;;;;;;;41.53;20.23;;;3.30;99.90;;;0.78;100.00;99719.19;10473604;27;96538;-83
2023/12/12 07:27:10;;;;;;;48.33;24.33;;;2.90;99.90;;;0.53;100.00;99722.81;10505665;27;96558;-82
2023/12/12 07:32:14;;;;;;;42.90;21.27;;;2.70;99.90;;;0.39;100.00;99736.09;10460054;27;97755;-82
2023/12/12 07:37:17;;;;;;;59.83;25.43;;;2.50;99.90;;;0.23;100.00;99739.00;10482220;27;96578;-82
2023/12/12 07:42:21;;;;;;;56.17;25.57;;;2.30;99.90;;;0.24;100.00;99745.06;10482107;27;96489;-82
2023/12/12 07:47:25;;;;;;;60.80;26.37;;;2.20;99.90;;;0.28;100.00;99745.69;10504671;27;96502;-82
2023/12/12 07:52:40;;;;;;;67.37;28.17;;;2.20;99.90;;;0.47;100.00;99744.19;10468838;27;96436;-82
2023/12/12 07:57:44;;;;;;;70.80;32.93;;;2.20;99.90;;;1.08;100.00;99746.56;10485569;27;96737;-82
2023/12/12 08:02:47;;;;;;;63.90;29.53;;;2.60;99.90;;;1.79;100.00;99753.13;10477302;27;96576;-82
2023/12/12 08:07:51;;;;;;;54.57;27.17;;;3.00;99.90;;;2.44;100.00;99747.91;10487749;27;96438;-82
2023/12/12 08:12:54;;;;;;;45.73;24.73;;;3.50;99.90;;;3.02;100.00;99746.47;10468832;27;96789;-83
2023/12/12 08:17:59;;;;;;;39.73;21.97;;;4.00;99.90;;;3.63;100.00;99732.47;10480507;27;96582;-82
2023/12/12 08:23:03;;;;;;;24.23;13.83;;;4.50;99.90;;;4.39;100.00;99730.06;10475727;27;96491;-82
2023/12/12 08:28:08;;;;;;;25.97;14.37;;;5.30;99.90;;;5.07;100.00;99709.66;10459778;27;96615;-83
2023/12/12 08:33:12;;;;;;;48.93;26.60;;;6.10;99.90;;;5.48;100.00;99723.34;10475808;27;96560;-83
2023/12/12 08:38:15;;;;;;;42.37;21.63;;;6.60;99.90;;;5.63;100.00;99738.50;10475831;27;96535;-83
2023/12/12 08:43:19;;;;;;;34.50;19.60;;;7.00;99.90;;;5.55;100.00;99730.50;10485089;27;96421;-83
2023/12/12 08:48:23;;;;;;;44.20;24.33;;;7.10;99.90;;;5.07;100.00;99742.09;10480242;27;96540;-82
2023/12/12 08:53:27;;;;;;;50.20;25.23;;;6.90;99.90;;;4.64;100.00;99737.34;10484698;27;96753;-82
2023/12/12 08:58:31;;;;;;;26.60;13.80;;;6.50;99.90;;;4.55;100.00;99741.63;10484841;27;96403;-82
2023/12/12 09:03:34;;;;;;;12.27;5.20;;;6.30;99.90;;;4.84;100.00;99740.75;10458271;27;97736;-82
2023/12/12 09:08:42;;;;;;;5.77;2.20;;;6.60;99.90;;;5.61;100.00;99732.56;10484429;27;96793;-82
2023/12/12 09:13:45;;;;;;;10.30;3.10;;;7.40;99.90;;;6.39;100.00;99732.03;10449604;27;96512;-80
2023/12/12 09:18:50;;;;;;;4.60;1.70;;;8.10;99.90;;;6.71;100.00;99724.34;10465168;27;96789;-81
2023/12/12 09:23:53;;;;;;;9.20;2.00;;;8.50;99.90;;;6.87;100.00;99722.81;10498190;27;97908;-82
2023/12/12 09:28:57;;;;;;;18.83;8.63;;;8.60;99.90;;;6.93;100.00;99706.34;10465977;27;96614;-80
2023/12/12 09:34:01;;;;;;;13.77;3.40;;;8.70;99.90;;;6.94;100.00;99713.28;10475240;27;96566;-80
2023/12/12 09:39:07;;;;;;;3.90;1.90;;;8.70;99.90;;;6.95;100.00;99713.13;10452635;27;97206;-82
2023/12/12 09:44:13;;;;;;;4.40;1.00;;;8.70;99.90;;;6.95;100.00;99712.28;10417098;28;96593;-82
2023/12/12 09:49:18;;;;;;;2.53;1.37;;;8.80;99.90;;;7.00;100.00;99717.94;10447927;27;96539;-82
2023/12/12 09:54:24;;;;;;;3.23;1.20;;;8.80;99.90;;;6.95;100.00;99707.84;10461204;27;96553;-82
2023/12/12 09:59:28;;;;;;;8.10;1.87;;;8.80;99.90;;;6.89;100.00;99702.34;10442838;27;96563;-83
2023/12/12 10:04:32;;;;;;;8.63;3.50;;;8.70;99.90;;;6.86;100.00;99689.47;10458365;27;97033;-82
2023/12/12 10:09:36;;;;;;;6.70;1.87;;;8.70;99.90;;;6.95;100.00;99691.16;10456756;27;96544;-82
2023/12/12 10:14:44;;;;;;;12.90;5.10;;;8.80;99.90;;;6.91;100.00;99674.81;10481147;27;96557;-82
2023/12/12 10:20:04;;;;;;;4.97;1.57;;;8.80;99.90;;;7.05;100.00;99688.41;10480494;27;96488;-82
2023/12/12 10:25:14;;;;;;;4.37;1.70;;;8.90;99.90;;;7.19;100.00;99685.16;10513703;27;96624;-80
2023/12/12 10:30:20;;;;;;;10.27;2.87;;;9.10;99.90;;;7.31;100.00;99689.19;10477824;27;96523;-80
2023/12/12 10:35:25;;;;;;;18.40;10.70;;;9.20;99.90;;;7.24;100.00;99694.28;10461124;27;96733;-80
2023/12/12 10:40:29;;;;;;;28.17;16.73;;;9.20;99.90;;;7.01;100.00;99689.72;10472318;27;96588;-80
2023/12/12 10:45:33;;;;;;;27.47;13.00;;;9.00;99.90;;;6.96;100.00;99691.03;10440272;27;96553;-82
2023/12/12 10:50:44;;;;;;;17.37;9.80;;;9.00;99.90;;;7.29;100.00;99679.78;10444613;27;96541;-83
2023/12/12 10:55:50;;;;;;;16.38;8.48;;;9.30;99.90;;;7.42;100.00;99680.16;10460598;27;96553;-82
2023/12/12 11:00:54;;;;;;;12.60;6.57;;;9.40;99.90;;;7.48;100.00;99674.22;10487669;27;96482;-80
2023/12/12 11:05:59;;;;;;;19.13;8.77;;;9.40;99.90;;;7.53;100.00;99682.50;10484457;27;97688;-80
2023/12/12 11:11:10;;;;;;;14.13;6.67;;;9.40;99.90;;;7.51;100.00;99693.25;10444393;27;98596;-82
2023/12/12 11:16:16;;;;;;;4.30;1.73;;;9.40;99.90;;;7.55;100.00;99685.81;10457403;27;96597;-80
2023/12/12 11:21:48;;;;;;;5.67;1.80;;;9.40;99.90;;;7.65;100.00;99686.50;10454097;27;96573;-80
2023/12/12 11:26:53;;;;;;;6.43;1.05;;;9.40;99.90;;;7.64;100.00;99697.25;10436849;27;98328;-82
2023/12/12 11:32:01;;;;;;;5.20;2.27;;;9.40;99.90;;;7.61;100.00;99690.44;10466924;27;96547;-82
2023/12/12 11:37:06;;;;;;;8.20;2.87;;;9.50;99.90;;;7.52;100.00;99686.13;10453479;27;96449;-80
2023/12/12 11:42:21;;;;;;;3.93;1.67;;;9.40;99.90;;;7.51;98.03;99679.19;10472437;27;96865;-80
2023/12/12 11:47:32;;;;;;;3.63;1.00;;;9.40;99.90;;;7.58;95.16;99666.97;10454769;27;97452;-82
2023/12/12 11:52:38;;;;;;;4.38;1.00;;;9.40;99.90;;;7.56;98.96;99674.25;10448044;27;98249;-83
2023/12/12 11:57:43;;;;;;;5.50;1.40;;;9.40;99.90;;;7.61;93.17;99669.28;10471225;27;96508;-83
2023/12/12 12:02:47;;;;;;;3.67;1.00;;;9.40;99.90;;;7.52;99.28;99664.97;10435299;27;96500;-82
2023/12/12 12:07:50;;;;;;;7.43;1.87;;;9.40;99.90;;;7.49;100.00;99660.00;10419307;27;96766;-82
2023/12/12 12:12:58;;;;;;;7.17;1.50;;;9.40;99.90;;;7.47;100.00;99651.41;10445086;27;96517;-82
2023/12/12 12:18:02;;;;;;;4.00;2.13;;;9.40;99.90;;;7.49;100.00;99644.13;10445125;27;97711;-83
2023/12/12 12:23:07;;;;;;;9.27;3.67;;;9.40;99.90;;;7.46;100.00;99655.88;10440149;27;96724;-82
2023/12/12 12:28:11;;;;;;;18.03;9.80;;;9.40;99.90;;;7.32;100.00;99643.28;10463286;27;96540;-83
2023/12/12 12:33:16;;;;;;;29.23;15.33;;;9.30;99.90;;;7.19;100.00;99656.94;10498019;27;96600;-82
2023/12/12 12:38:27;;;;;;;14.90;8.60;;;9.20;99.90;;;7.10;100.00;99647.34;10447491;27;98335;-82
2023/12/12 12:43:30;;;;;;;10.05;3.63;;;9.10;99.90;;;7.04;100.00;99650.59;10447328;27;96518;-83
2023/12/12 12:48:34;;;;;;;7.13;3.10;;;9.10;99.90;;;7.02;100.00;99654.38;10473218;27;96535;-81
2023/12/12 12:53:39;;;;;;;7.27;2.83;;;9.00;99.90;;;6.96;100.00;99640.00;10473538;27;98008;-83
2023/12/12 12:58:44;;;;;;;7.97;3.17;;;8.90;99.90;;;6.88;100.00;99627.56;10458432;27;96595;-82
2023/12/12 13:03:47;;;;;;;13.30;6.43;;;8.90;99.90;;;6.86;100.00;99626.09;10464215;27;96546;-81
2023/12/12 13:08:51;;;;;;;7.57;3.43;;;8.80;99.90;;;6.81;100.00;99617.81;10459529;27;96680;-82
2023/12/12 13:13:54;;;;;;;14.63;5.50;;;8.80;99.90;;;6.68;100.00;99608.50;10474604;27;97568;-82
2023/12/12 13:18:58;;;;;;;12.17;4.80;;;8.70;99.90;;;6.60;100.00;99597.91;10497481;27;96434;-82
2023/12/12 13:24:02;;;;;;;8.43;3.87;;;8.60;99.90;;;6.48;100.00;99611.50;10464966;27;96574;-82
2023/12/12 13:29:06;;;;;;;5.07;3.07;;;8.50;99.90;;;6.39;100.00;99598.28;10441842;27;96402;-82
2023/12/12 13:34:10;;;;;;;15.67;4.77;;;8.40;99.90;;;6.38;100.00;99611.63;10441467;27;97169;-82
2023/12/12 13:39:15;;;;;;;11.10;4.37;;;8.30;99.90;;;6.37;100.00;99617.91;10459149;27;96456;-82
2023/12/12 13:44:22;;;;;;;20.83;8.07;;;8.30;99.90;;;6.28;100.00;99630.19;10444031;27;96690;-82
2023/12/12 13:49:26;;;;;;;17.43;7.17;;;8.30;99.90;;;6.21;100.00;99641.53;10429809;27;97465;-82
2023/12/12 13:54:30;;;;;;;20.70;8.10;;;8.20;99.90;;;6.11;100.00;99645.06;10470720;27;96910;-82
2023/12/12 13:59:34;;;;;;;40.73;14.73;;;8.10;99.90;;;6.06;100.00;99665.81;10495855;27;96449;-82
2023/12/12 14:04:38;;;;;;;50.30;19.70;;;8.10;99.90;;;5.99;100.00;99656.81;10447276;27;96618;-82
2023/12/12 14:09:41;;;;;;;21.83;10.20;;;8.00;99.90;;;6.02;100.00;99663.63;10450765;27;96551;-82
2023/12/12 14:14:45;;;;;;;29.37;13.20;;;8.00;99.90;;;5.97;100.00;99666.72;10468159;27;96483;-81
2023/12/12 14:19:48;;;;;;;23.67;11.43;;;7.90;99.90;;;5.87;100.00;99671.19;10498461;27;96486;-82
2023/12/12 14:24:52;;;;;;;20.40;9.43;;;7.90;99.90;;;5.68;100.00;99655.53;10441105;27;97096;-82
2023/12/12 14:29:57;;;;;;;35.70;14.93;;;7.70;99.90;;;5.44;100.00;99648.19;10456709;27;96719;-82
2023/12/12 14:35:00;;;;;;;25.23;11.13;;;7.50;99.90;;;5.25;100.00;99665.78;10462579;27;96576;-82
2023/12/12 14:40:05;;;;;;;13.33;5.83;;;7.30;99.90;;;4.94;100.00;99659.13;10462259;27;97294;-81
2023/12/12 14:45:09;;;;;;;13.17;5.03;;;7.10;99.90;;;4.67;100.00;99662.53;10442196;27;96539;-82
2023/12/12 14:50:14;;;;;;;10.50;4.60;;;6.80;99.90;;;4.40;100.00;99653.63;10475426;27;96532;-81
2023/12/12 14:55:17;;;;;;;13.97;6.10;;;6.50;99.90;;;4.18;100.00;99651.28;10474317;27;96657;-81
2023/12/12 15:00:22;;;;;;;24.40;9.80;;;6.20;99.90;;;3.93;100.00;99652.69;10455301;27;96627;-81
2023/12/12 15:05:30;;;;;;;39.70;18.10;;;6.00;99.90;;;3.75;100.00;99636.78;10477185;27;96511;-81
2023/12/12 15:10:33;;;;;;;69.37;29.80;;;5.80;99.90;;;3.59;100.00;99637.31;10478442;27;96833;-81
2023/12/12 15:15:37;;;;;;;77.93;36.80;;;5.60;99.90;;;3.43;100.00;99626.53;10457008;27;96449;-81
2023/12/12 15:20:40;;;;;;;67.77;30.43;;;5.50;99.90;;;3.25;100.00;99607.97;10464610;27;96920;-81
2023/12/12 15:25:44;;;;;;;80.50;36.63;;;5.40;99.90;;;3.29;100.00;99621.66;10448079;27;96621;-81
2023/12/12 15:30:48;;;;;;;73.20;33.40;;;5.30;99.90;;;3.18;100.00;99615.56;10480846;27;96746;-81
2023/12/12 15:35:52;;;;;;;74.87;36.37;;;5.30;99.90;;;3.09;100.00;99613.72;10425944;27;96454;-81
2023/12/12 15:40:56;;;;;;;73.10;36.87;;;5.20;99.90;;;2.97;100.00;99622.69;10474246;27;96772;-80
2023/12/12 15:45:59;;;;;;;77.77;34.47;;;5.10;99.90;;;2.87;100.00;99622.63;10476788;27;98454;-81
2023/12/12 15:51:04;;;;;;;90.17;41.40;;;5.00;99.90;;;2.80;100.00;99632.00;10480145;27;96612;-81
2023/12/12 15:56:12;;;;;;;73.20;33.23;;;4.90;99.90;;;2.73;100.00;99625.63;10460295;27;96719;-81
2023/12/12 16:01:15;;;;;;;75.73;34.97;;;4.80;99.90;;;2.62;100.00;99615.22;10425733;27;96506;-81
2023/12/12 16:06:19;;;;;;;77.93;36.93;;;4.80;99.90;;;2.58;100.00;99621.69;10460919;27;96450;-81
2023/12/12 16:11:22;;;;;;;79.87;36.67;;;4.70;99.90;;;2.53;100.00;99616.84;10461522;27;96482;-81
2023/12/12 16:16:26;;;;;;;73.80;36.33;;;4.60;99.90;;;2.44;100.00;99630.72;10461685;27;96845;-81
2023/12/12 16:21:31;;;;;;;67.53;31.07;;;4.50;99.90;;;2.37;100.00;99614.69;10462031;27;96433;-81
2023/12/12 16:26:35;;;;;;;56.53;23.93;;;4.50;99.90;;;2.31;100.00;99617.81;10502516;27;96422;-82
2023/12/12 16:31:39;;;;;;;51.73;22.13;;;4.40;99.90;;;2.27;100.00;99619.03;10454056;27;96610;-81
2023/12/12 16:36:43;;;;;;;63.50;29.67;;;4.40;99.90;;;2.19;100.00;99618.84;10460551;27;96475;-81
2023/12/12 16:41:51;;;;;;;39.57;18.07;;;4.30;99.90;;;2.15;100.00;99617.44;10450116;27;97243;-81
2023/12/12 16:46:55;;;;;;;33.47;17.87;;;4.30;99.90;;;2.11;100.00;99610.81;10443736;27;96637;-81
2023/12/12 16:51:59;;;;;;;24.50;12.10;;;4.20;99.90;;;2.14;100.00;99618.41;10461314;27;96499;-81
2023/12/12 16:57:04;;;;;;;36.93;19.27;;;4.30;99.90;;;2.12;100.00;99615.09;10440403;27;96856;-81
2023/12/12 17:02:08;;;;;;;41.13;20.63;;;4.20;99.90;;;2.08;100.00;99597.94;10457119;27;98177;-81
2023/12/12 17:07:11;;;;;;;27.00;13.53;;;4.20;99.90;;;2.05;100.00;99600.84;10450521;27;96568;-81
2023/12/12 17:12:15;;;;;;;24.03;11.40;;;4.20;99.90;;;1.92;100.00;99574.84;10459357;27;96391;-81
2023/12/12 17:17:19;;;;;;;26.67;13.60;;;4.10;99.90;;;1.90;100.00;99589.84;10473015;27;96626;-81
2023/12/12 17:22:24;;;;;;;32.77;14.27;;;4.00;99.90;;;1.78;100.00;99573.34;10477771;27;96449;-81
2023/12/12 17:27:27;;;;;;;24.43;11.73;;;4.00;99.90;;;1.79;100.00;99588.09;10432044;27;96608;-81
2023/12/12 17:32:31;;;;;;;25.87;12.20;;;3.90;99.90;;;1.76;100.00;99588.38;10451446;27;96822;-81
2023/12/12 17:37:37;;;;;;;27.33;10.27;;;3.90;99.90;;;1.71;100.00;99572.19;10469364;27;97216;-81
2023/12/12 17:42:44;;;;;;;22.97;10.50;;;3.80;99.90;;;1.73;100.00;99593.00;10471378;27;96771;-81
2023/12/12 17:47:47;;;;;;;23.10;10.33;;;3.80;99.90;;;1.74;100.00;99598.16;10480731;27;96681;-81
2023/12/12 17:52:51;;;;;;;38.90;17.80;;;3.80;99.90;;;1.76;100.00;99604.09;10469737;27;97816;-81
2023/12/12 17:57:55;;;;;;;42.53;16.57;;;3.90;99.90;;;1.78;100.00;99614.44;10451659;27;96582;-81
2023/12/12 18:02:58;;;;;;;24.23;11.43;;;3.90;99.90;;;1.81;100.00;99607.16;10446644;27;96646;-81
2023/12/12 18:08:03;;;;;;;27.93;11.97;;;4.00;99.90;;;1.93;100.00;99586.97;10473583;27;96620;-81
2023/12/12 18:13:07;;;;;;;23.23;11.80;;;4.00;99.90;;;2.02;100.00;99587.97;10446310;27;96540;-80
2023/12/12 18:18:12;;;;;;;23.37;10.63;;;4.10;99.90;;;2.08;100.00;99590.91;10434415;27;96711;-80
2023/12/12 18:23:16;;;;;;;22.80;10.37;;;4.20;99.90;;;2.12;100.00;99586.25;10475289;27;96537;-80
2023/12/12 18:28:20;;;;;;;20.17;8.33;;;4.20;99.90;;;2.17;100.00;99568.34;10467193;27;96762;-80
2023/12/12 18:33:23;;;;;;;21.20;9.60;;;4.20;99.90;;;2.25;100.00;99565.09;10481996;27;96472;-80
2023/12/12 18:38:27;;;;;;;23.53;10.03;;;4.40;99.90;;;2.27;100.00;99561.34;10444587;27;96543;-80
2023/12/12 18:43:30;;;;;;;20.77;8.53;;;4.40;99.90;;;2.28;100.00;99543.84;10458755;27;97000;-81
2023/12/12 18:48:35;;;;;;;18.00;9.40;;;4.40;99.90;;;2.28;100.00;99549.94;10475660;27;96542;-81
2023/12/12 18:53:39;;;;;;;16.97;9.10;;;4.40;99.90;;;2.28;100.00;99536.81;10450170;27;96546;-80
2023/12/12 18:58:43;;;;;;;27.10;8.80;;;4.40;99.90;;;2.33;100.00;99516.25;10458050;27;96803;-81
2023/12/12 19:03:46;;;;;;;25.23;9.50;;;4.50;99.90;;;2.42;100.00;99512.03;10471489;27;96641;-81
2023/12/12 19:08:50;;;;;;;19.83;9.40;;;4.50;99.90;;;2.39;100.00;99505.25;10481002;27;97727;-81
2023/12/12 19:13:53;;;;;;;16.83;7.80;;;4.50;99.90;;;2.47;100.00;99511.63;10460394;27;96526;-81
2023/12/12 19:18:57;;;;;;;16.90;8.10;;;4.60;99.90;;;2.52;100.00;99509.41;10469313;27;96729;-81
2023/12/12 19:24:01;;;;;;;16.43;7.40;;;4.60;99.90;;;2.57;100.00;99515.94;10450610;27;96614;-81
2023/12/12 19:29:04;;;;;;;21.60;8.87;;;4.70;99.90;;;2.64;100.00;99532.81;10447324;27;97314;-81
2023/12/12 19:34:08;;;;;;;14.80;8.10;;;4.70;99.90;;;2.62;100.00;99513.75;10440667;27;96806;-81
2023/12/12 19:39:13;;;;;;;19.57;9.50;;;4.70;99.90;;;2.63;100.00;99507.53;10466921;27;96711;-80
2023/12/12 19:44:17;;;;;;;17.70;8.80;;;4.70;99.90;;;2.60;100.00;99465.00;10502230;27;96618;-80
2023/12/12 19:49:20;;;;;;;18.13;9.20;;;4.70;99.90;;;2.58;100.00;99470.41;10465165;27;96646;-80
2023/12/12 19:54:25;;;;;;;20.70;9.37;;;4.70;99.90;;;2.58;100.00;99470.41;10460874;27;96536;-80
2023/12/12 19:59:29;;;;;;;19.07;9.60;;;4.70;99.90;;;2.59;100.00;99479.09;10464928;27;96666;-80
2023/12/12 20:04:32;;;;;;;19.30;9.07;;;4.70;99.90;;;2.57;100.00;99466.09;10450175;27;96643;-80
2023/12/12 20:09:41;;;;;;;23.67;9.60;;;4.70;99.90;;;2.56;100.00;99480.19;10457810;27;96604;-80
2023/12/12 20:14:44;;;;;;;17.97;7.77;;;4.60;99.90;;;2.57;100.00;99471.34;10443852;27;97573;-80
2023/12/12 20:19:48;;;;;;;15.60;7.00;;;4.60;99.90;;;2.61;100.00;99469.28;10452487;27;96508;-80
2023/12/12 20:24:51;;;;;;;16.43;8.23;;;4.70;99.90;;;2.61;100.00;99443.06;10461783;27;96550;-80
2023/12/12 20:29:55;;;;;;;19.30;8.80;;;4.70;99.90;;;2.62;100.00;99458.66;10471615;27;97540;-80
2023/12/12 20:34:59;;;;;;;23.57;11.07;;;4.70;99.90;;;2.64;100.00;99450.69;10445773;27;96651;-80
2023/12/12 20:40:09;;;;;;;28.83;14.07;;;4.70;99.90;;;2.63;100.00;99417.50;10452508;27;96581;-80
2023/12/12 20:45:12;;;;;;;24.40;12.37;;;4.70;99.90;;;2.60;100.00;99428.28;10425661;27;98496;-80
2023/12/12 20:50:16;;;;;;;24.43;12.87;;;4.70;99.90;;;2.64;100.00;99448.06;10449480;27;96553;-80
2023/12/12 20:55:19;;;;;;;19.83;9.90;;;4.70;99.90;;;2.66;100.00;99425.94;10448954;27;97132;-80